• Join FlightAware (Why Join?)
  • Login
  • US Flag 
08:15PM EDT


 

Airport Tracker/Info


-or-


 

Live Flight TrackerFlight Track Log ✈ UAL325 ✈ 13-May-2012 ✈ KORD - CYVR

Flight Track Log - Related Links

Times and Time Zones

All times are in EDT time to prevent confusion due to time zone crossing. See the UAL325 flight status page for this flight to view local times or setup timezone preferences in your user account.

Time Position Orientation Groundspeed Altitude Reporting Facility
EDT Latitude Longitude Course Direction KTS MPH feet Rate Location/Type
10:51PM 41.9904 -87.9862 46° Northeast  Level FlightAware Approximate
10:52PM 41.9667 -88.1233 69° East  Level FlightAware Approximate
10:52PM 42.0167 -87.9500 277° West 174 200 2,200  Level Chicago TRACON
10:57PM 42.0636 -88.4550 267° West 338 389 12,400 1,980 Climbing Chicago Center
10:58PM 42.0583 -88.6003 274° West 371 427 14,400 1,860 Climbing Chicago Center
10:59PM 42.0656 -88.7514 277° West 392 451 16,200 1,680 Climbing Chicago Center
11:00PM 42.0786 -88.8967 277° West 397 457 17,800 1,560 Climbing Chicago Center
11:01PM 42.0936 -89.0533 275° West 415 478 19,400 1,680 Climbing Chicago Center
11:02PM 42.1044 -89.2128 278° West 430 495 21,200 1,560 Climbing Chicago Center
11:03PM 42.1211 -89.3778 278° West 441 507 22,600 1,260 Climbing Chicago Center
11:04PM 42.1378 -89.5431 278° West 447 514 23,800 1,200 Climbing Chicago Center
11:05PM 42.1561 -89.7111 278° West 447 514 25,000 1,140 Climbing Chicago Center
11:06PM 42.1742 -89.8767 281° West 447 514 26,100 1,140 Climbing Chicago Center
11:07PM 42.1983 -90.0450 278° West 447 514 27,300 1,080 Climbing Chicago Center
11:08PM 42.2158 -90.2189 279° West 459 528 28,300 1,020 Climbing Chicago Center
11:09PM 42.2353 -90.3931 279° West 464 534 29,400 1,140 Climbing Chicago Center
11:10PM 42.2544 -90.5672 295° West 464 534 30,600 1,200 Climbing Chicago Center
11:11PM 42.3069 -90.7200 294° West 459 528 31,800 1,200 Climbing Chicago Center
11:12PM 42.3569 -90.8756 295° West 453 521 33,100 840 Climbing Chicago Center
11:13PM 42.4072 -91.0231 294° West 442 509 33,500 360 Climbing Chicago Center
11:14PM 42.4608 -91.1850 294° West 449 517 33,900 120 Climbing Chicago Center
11:16PM 42.5717 -91.5211 293° West 450 518 33,900  Level Minneapolis Center
11:17PM 42.6200 -91.6800 295° West 456 525 33,900  Level Minneapolis Center
11:18PM 42.6789 -91.8533 294° West 461 531 33,900  Level Minneapolis Center
11:19PM 42.7311 -92.0131 294° West 461 531 33,900  Level Minneapolis Center
11:20PM 42.7831 -92.1728 294° West 456 525 33,900  Level Minneapolis Center
11:21PM 42.8347 -92.3328 294° West 456 525 33,900  Level Minneapolis Center
11:22PM 42.8861 -92.4906 293° West 456 525 33,900  Level Minneapolis Center
11:23PM 42.9353 -92.6483 294° West 456 525 33,900  Level Minneapolis Center
11:24PM 42.9819 -92.7953 293° West 461 531 33,900  Level Minneapolis Center
11:25PM 43.0306 -92.9536 292° West 461 531 33,900  Level Minneapolis Center
11:26PM 43.0792 -93.1150 293° West 455 524 33,900  Level Minneapolis Center
11:27PM 43.1275 -93.2739 293° West 455 524 33,900  Level Minneapolis Center
11:28PM 43.1775 -93.4333 293° West 455 524 33,900  Level Minneapolis Center
11:29PM 43.2272 -93.5983 294° West 460 529 33,900  Level Minneapolis Center
11:30PM 43.2769 -93.7553 293° West 460 529 33,900  Level Minneapolis Center
11:31PM 43.3264 -93.9181 292° West 455 524 33,900  Level Minneapolis Center
11:32PM 43.3733 -94.0753 293° West 455 524 33,900  Level Minneapolis Center
11:33PM 43.4244 -94.2417 296° West 455 524 33,900  Level Minneapolis Center
11:34PM 43.4775 -94.3939 291° West 455 524 33,900  Level Minneapolis Center
11:35PM 43.5236 -94.5578 293° West 460 529 34,000  Climbing Minneapolis Center
11:36PM 43.5742 -94.7192 292° West 455 524 33,900 -60 Descending Minneapolis Center
11:37PM 43.6219 -94.8836 291° West 455 524 33,900  Level Minneapolis Center
11:38PM 43.6678 -95.0453 292° West 455 524 34,000  Climbing Minneapolis Center
11:39PM 43.7192 -95.2247 291° West 455 524 33,900 -60 Descending Minneapolis Center
11:40PM 43.7644 -95.3869 292° West 455 524 33,900  Level Minneapolis Center
11:41PM 43.8114 -95.5497 291° West 455 524 33,900  Level Minneapolis Center
11:42PM 43.8561 -95.7125 292° West 455 524 33,900  Level Minneapolis Center
11:43PM 43.9025 -95.8756 291° West 455 524 33,900  Level Minneapolis Center
11:44PM 43.9411 -96.0183 291° West 455 524 33,900  Level Minneapolis Center
11:45PM 43.9872 -96.1850 291° West 455 524 33,900  Level Minneapolis Center
11:46PM 44.0308 -96.3458 292° West 455 524 33,900  Level Minneapolis Center
11:47PM 44.0822 -96.5275 290° West 455 524 33,900  Level Minneapolis Center
11:48PM 44.1256 -96.6917 291° West 455 524 34,000  Climbing Minneapolis Center
11:49PM 44.1706 -96.8564 291° West 455 524 33,900 -60 Descending Minneapolis Center
11:50PM 44.2156 -97.0183 290° West 455 524 33,900  Level Minneapolis Center
11:51PM 44.2581 -97.1833 291° West 455 524 33,900  Level Minneapolis Center
11:52PM 44.2933 -97.3133 290° West 455 524 33,900  Level Minneapolis Center
11:53PM 44.3411 -97.4936 291° West 455 524 33,900  Level Minneapolis Center
11:54PM 44.3853 -97.6536 288° West 455 524 33,900  Level Minneapolis Center
11:55PM 44.4247 -97.8194 290° West 455 524 33,900  Level Minneapolis Center
11:56PM 44.4661 -97.9828 289° West 455 524 33,900  Level Minneapolis Center
11:57PM 44.5072 -98.1461 290° West 455 524 33,900  Level Minneapolis Center
11:58PM 44.5503 -98.3128 291° West 455 524 33,900  Level Minneapolis Center
11:59PM 44.5989 -98.4892 288° West 455 524 33,900  Level Minneapolis Center
12:00AM 44.6389 -98.6592 289° West 455 524 33,900  Level Minneapolis Center
12:01AM 44.6792 -98.8206 290° West 455 524 33,900  Level Minneapolis Center
12:02AM 44.7214 -98.9856 288° West 455 524 33,900  Level Minneapolis Center
12:03AM 44.7589 -99.1500 290° West 455 524 33,900  Level Minneapolis Center
12:04AM 44.8006 -99.3153 289° West 455 524 33,900  Level Minneapolis Center
12:05AM 44.8397 -99.4806 288° West 455 524 33,900  Level Minneapolis Center
12:06AM 44.8733 -99.6281 289° West 455 524 33,900  Level Minneapolis Center
12:07AM 44.9142 -99.7939 287° West 455 524 33,900  Level Minneapolis Center
12:08AM 44.9503 -99.9653 289° West 455 524 33,900  Level Minneapolis Center
12:09AM 44.9922 -100.1378 290° West 460 529 34,000  Climbing Minneapolis Center
12:10AM 45.0325 -100.2986 288° West 454 522 33,900 -60 Descending Minneapolis Center
12:11AM 45.0703 -100.4650 288° West 448 516 33,900  Level Minneapolis Center
12:12AM 45.1081 -100.6289 288° West 448 516 33,900  Level Minneapolis Center
12:13AM 45.1472 -100.7992 288° West 448 516 33,900  Level Minneapolis Center
12:14AM 45.1842 -100.9633 287° West 448 516 33,900  Level Minneapolis Center
12:15AM 45.2242 -101.1458 288° West 448 516 33,900  Level Minneapolis Center
12:16AM 45.2608 -101.3078 288° West 448 516 33,900  Level Minneapolis Center
12:17AM 45.2989 -101.4786 288° West 448 516 33,900  Level Minneapolis Center
12:18AM 45.3369 -101.6469 287° West 448 516 33,900  Level Minneapolis Center
12:19AM 45.3725 -101.8181 287° West 448 516 34,000  Climbing Minneapolis Center
12:20AM 45.4078 -101.9867 287° West 453 521 34,000 -60 Level Minneapolis Center
12:21AM 45.4431 -102.1522 287° West 453 521 33,900 -60 Descending Minneapolis Center
12:23AM 45.5103 -102.4639 286° West 439 505 33,900  Level Salt Lake Center
12:24AM 45.5447 -102.6308 287° West 439 505 33,900  Level Salt Lake Center
12:25AM 45.5794 -102.7981 286° West 440 506 33,900  Level Salt Lake Center
12:26AM 45.6153 -102.9722 286° West 443 510 33,900  Level Salt Lake Center
12:28AM 45.6547 -103.1689 286° West 442 509 33,900  Level Salt Lake Center
12:29AM 45.6883 -103.3356 286° West 439 505 33,900  Level Salt Lake Center
12:30AM 45.7222 -103.5039 286° West 439 505 33,900  Level Salt Lake Center
12:31AM 45.7556 -103.6725 286° West 441 507 33,900  Level Salt Lake Center
12:32AM 45.7886 -103.8411 285° West 440 506 33,900  Level Salt Lake Center
12:33AM 45.8211 -104.0103 286° West 441 507 33,900  Level Salt Lake Center
12:34AM 45.8542 -104.1808 285° West 442 509 33,900  Level Salt Lake Center
12:35AM 45.8861 -104.3506 286° West 442 509 33,900  Level Salt Lake Center
12:36AM 45.9244 -104.5489 284° West 440 506 33,900  Level Salt Lake Center
12:37AM 45.9528 -104.7103 285° West 438 504 33,900  Level Salt Lake Center
12:38AM 45.9872 -104.8992 285° West 438 504 33,900  Level Salt Lake Center
12:39AM 46.0169 -105.0606 285° West 438 504 33,900  Level Salt Lake Center
12:40AM 46.0461 -105.2222 284° West 438 504 33,900  Level Salt Lake Center
12:41AM 46.0800 -105.4131 285° West 440 506 33,900  Level Salt Lake Center
12:42AM 46.1097 -105.5756 285° West 440 506 33,900  Level Salt Lake Center
12:43AM 46.1447 -105.7669 284° West 441 507 33,900  Level Salt Lake Center
12:44AM 46.1736 -105.9314 285° West 442 509 33,900  Level Salt Lake Center
12:45AM 46.1986 -106.0681 284° West 442 509 33,900  Level Salt Lake Center
12:46AM 46.2372 -106.2864 284° West 442 509 33,900  Level Salt Lake Center
12:47AM 46.2656 -106.4514 284° West 442 509 33,900  Level Salt Lake Center
12:48AM 46.2983 -106.6442 283° West 442 509 33,900  Level Salt Lake Center
12:49AM 46.3242 -106.8058 283° West 439 505 33,900  Level Salt Lake Center
12:50AM 46.3544 -106.9942 283° West 435 501 33,900  Level Salt Lake Center
12:51AM 46.3803 -107.1561 283° West 434 499 33,900  Level Salt Lake Center
12:52AM 46.4075 -107.3219 283° West 437 503 33,900  Level Salt Lake Center
12:53AM 46.4375 -107.5114 282° West 436 502 34,000  Climbing Salt Lake Center
12:54AM 46.4619 -107.6722 283° West 431 496 34,000 -60 Level Salt Lake Center
12:55AM 46.4922 -107.8611 282° West 432 497 33,900 -60 Descending Salt Lake Center
12:56AM 46.5167 -108.0236 283° West 432 497 33,900  Level Salt Lake Center
12:57AM 46.5425 -108.1878 282° West 434 499 33,900  Level Salt Lake Center
12:58AM 46.5711 -108.3783 285° West 435 501 34,000  Climbing Salt Lake Center
12:59AM 46.6006 -108.5408 286° West 436 502 33,900 -60 Descending Salt Lake Center
01:00AM 46.6369 -108.7292 285° West 434 499 33,900  Level Salt Lake Center
01:01AM 46.6664 -108.8914 285° West 434 499 33,900  Level Salt Lake Center
01:02AM 46.6964 -109.0556 285° West 436 502 33,900  Level Salt Lake Center
01:03AM 46.7261 -109.2194 285° West 436 502 33,900  Level Salt Lake Center
01:04AM 46.7567 -109.3881 285° West 433 498 33,900  Level Salt Lake Center
01:05AM 46.7878 -109.5564 284° West 432 497 33,900  Level Salt Lake Center
01:06AM 46.8231 -109.7578 284° West 430 495 33,900  Level Salt Lake Center
01:07AM 46.8519 -109.9275 285° West 429 494 33,900  Level Salt Lake Center
01:08AM 46.8819 -110.0975 284° West 432 497 33,900  Level Salt Lake Center
01:09AM 46.9106 -110.2686 284° West 433 498 33,900  Level Salt Lake Center
01:10AM 46.9400 -110.4386 283° West 432 497 33,900  Level Salt Lake Center
01:11AM 46.9678 -110.6094 284° West 432 497 33,900  Level Salt Lake Center
01:12AM 46.9964 -110.7803 284° West 432 497 33,900  Level Salt Lake Center
01:13AM 47.0253 -110.9550 283° West 436 502 33,900  Level Salt Lake Center
01:14AM 47.0522 -111.1272 284° West 435 501 33,900  Level Salt Lake Center
01:16AM 47.0814 -111.3014 283° West 437 503 33,900  Level Salt Lake Center
01:17AM 47.1083 -111.4753 283° West 436 502 33,900  Level Salt Lake Center
01:18AM 47.1353 -111.6481 283° West 434 499 33,900  Level Salt Lake Center
01:19AM 47.1619 -111.8203 283° West 433 498 33,900  Level Salt Lake Center
01:20AM 47.1881 -111.9933 283° West 432 497 33,900  Level Salt Lake Center
01:21AM 47.2150 -112.1653 282° West 432 497 33,900  Level Salt Lake Center
01:22AM 47.2400 -112.3356 282° West 427 491 33,900  Level Salt Lake Center
01:23AM 47.2642 -112.4994 283° West 418 481 33,900  Level Salt Lake Center
01:24AM 47.2889 -112.6644 282° West 413 475 33,900  Level Salt Lake Center
01:25AM 47.3133 -112.8292 283° West 413 475 33,900  Level Salt Lake Center
01:26AM 47.3386 -112.9972 282° West 413 475 33,900  Level Salt Lake Center
01:27AM 47.3669 -113.1956 282° West 412 474 33,900  Level Salt Lake Center
01:28AM 47.3906 -113.3608 282° West 412 474 33,900  Level Salt Lake Center
01:29AM 47.4133 -113.5267 282° West 413 475 33,900  Level Salt Lake Center
01:30AM 47.4367 -113.6911 281° West 410 472 33,900  Level Salt Lake Center
01:31AM 47.4592 -113.8575 282° West 412 474 33,900  Level Salt Lake Center
01:32AM 47.4819 -114.0231 281° West 411 473 33,900  Level Salt Lake Center
01:33AM 47.5044 -114.1906 281° West 414 476 33,900  Level Salt Lake Center
01:34AM 47.5264 -114.3589 281° West 415 478 33,900  Level Salt Lake Center
01:35AM 47.5483 -114.5275 281° West 415 478 33,900  Level Salt Lake Center
01:36AM 47.5744 -114.7300 281° West 416 479 33,900  Level Salt Lake Center
01:37AM 47.5956 -114.8992 281° West 415 478 33,900  Level Salt Lake Center
01:38AM 47.6172 -115.0681 281° West 416 479 33,900  Level Salt Lake Center
01:39AM 47.6386 -115.2386 280° West 419 482 33,900  Level Salt Lake Center
01:40AM 47.6583 -115.4078 281° West 418 481 33,900  Level Salt Lake Center
01:41AM 47.6794 -115.5778 279° West 419 482 33,900  Level Salt Lake Center
01:42AM 47.6989 -115.7519 280° West 418 481 33,900  Level Seattle Center
01:43AM 47.7189 -115.9206 280° West 416 479 33,900  Level Seattle Center
01:44AM 47.7378 -116.0889 280° West 416 479 33,900  Level Seattle Center
01:45AM 47.7572 -116.2556 280° West 414 476 33,900  Level Seattle Center
01:46AM 47.7767 -116.4233 280° West 414 476 33,900  Level Seattle Center
01:47AM 47.7958 -116.5925 280° West 417 480 33,900  Level Seattle Center
01:48AM 47.8194 -116.7958 279° West 419 482 33,900  Level Seattle Center
01:49AM 47.8378 -116.9611 280° West 417 480 33,900  Level Seattle Center
01:50AM 47.8567 -117.1294 279° West 417 480 33,900  Level Seattle Center
01:51AM 47.8736 -117.2969 278° West 416 479 33,900  Level Seattle Center
01:52AM 47.8900 -117.4664 279° West 416 479 33,900  Level Seattle Center
01:53AM 47.9078 -117.6367 278° West 418 481 33,900  Level Seattle Center
01:54AM 47.9247 -117.8092 278° West 422 486 33,900  Level Seattle Center
01:55AM 47.9417 -117.9814 278° West 422 486 33,900  Level Seattle Center
01:56AM 47.9575 -118.1533 278° West 421 484 33,900  Level Seattle Center
01:57AM 47.9744 -118.3247 278° West 421 484 33,900 -60 Level Seattle Center
01:58AM 47.9903 -118.4975 278° West 422 486 33,800  Descending Seattle Center
01:59AM 48.0064 -118.6711 278° West 423 487 33,900  Climbing Seattle Center
02:00AM 48.0225 -118.8478 278° West 428 493 33,900  Level Seattle Center
02:01AM 48.0392 -119.0236 277° West 430 495 33,900  Level Seattle Center
02:02AM 48.0539 -119.2008 278° West 432 497 33,900  Level Seattle Center
02:03AM 48.0694 -119.3764 277° West 429 494 33,900  Level Seattle Center
02:04AM 48.0839 -119.5539 277° West 430 495 33,900  Level Seattle Center
02:05AM 48.0981 -119.7300 278° West 430 495 33,900  Level Seattle Center
02:06AM 48.1136 -119.9056 277° West 428 493 33,900  Level Seattle Center
02:07AM 48.1303 -120.1175 273° West 429 494 33,900 -300 Level Seattle Center
02:08AM 48.1333 -120.2167 297° West 430 495 33,400 -900 Descending Vancouver Center
02:09AM 48.1833 -120.3667 285° West 430 495 32,400 -1,020 Descending Vancouver Center
02:10AM 48.2167 -120.5500 294° West 430 495 31,400 -960 Descending Vancouver Center
02:11AM 48.2667 -120.7167 294° West 430 495 30,500 -960 Descending Vancouver Center
02:12AM 48.3358 -120.9494 291° West 437 503 29,200 -960 Descending Seattle Center
02:13AM 48.3778 -121.1169 274° West 436 502 28,300 -1,080 Descending Seattle Center
02:14AM 48.3833 -121.2333 297° West 430 495 27,500 -1,080 Descending Vancouver Center
02:15AM 48.4333 -121.3833 292° West 420 483 26,600 -1,500 Descending Vancouver Center
02:16AM 48.4833 -121.5667 289° West 420 483 24,600 -2,160 Descending Vancouver Center
02:17AM 48.5167 -121.7167 291° West 410 472 22,300 -2,400 Descending Vancouver Center
02:18AM 48.5500 -121.8500 285° West 390 449 19,800 -2,220 Descending Vancouver Center
02:19AM 48.5833 -122.0333 291° West 380 437 17,900 -1,560 Descending Vancouver Center
02:20AM 48.6167 -122.1667 289° West 370 426 16,700 -1,800 Descending Vancouver Center
02:21AM 48.6500 -122.3167 293° West 360 414 14,400 -1,980 Descending Vancouver Center
02:22AM 48.6833 -122.4333 300° West 350 403 12,800 -1,200 Descending Vancouver Center
02:23AM 48.7333 -122.5667 307° West 330 380 12,000 -1,020 Descending Vancouver Center
02:24AM 48.7833 -122.6667 303° West 330 380 10,800 -1,200 Descending Vancouver Center
02:25AM 48.8333 -122.7833 312° West 300 345 9,700 -1,320 Descending Vancouver Center
02:26AM 48.8833 -122.8667 307° West 290 334 8,200 -1,260 Descending Vancouver Center
02:27AM 48.9333 -122.9667 327° Northwest 280 322 7,200 -1,620 Descending Vancouver Center
02:28AM 48.9833 -123.0167 26° Northeast 270 311 5,000 -1,740 Descending Vancouver Center
02:29AM 49.0500 -122.9667 18° North 260 299 3,800 -1,020 Descending Vancouver Center
02:30AM 49.1167 -122.9333 18° North 220 253 3,000 -840 Descending Vancouver Center